Time;durP1;ratioP1;P1;durP2;ratioP2;P2;SDS_P1;SDS_P2;PMS_P1;PMS_P2;Temp;Humidity;BMP_temperature;BMP_pressure;BME280_temperature;BME280_humidity;BME280_pressure;Samples;Min_cycle;Max_cycle;Signal;HPM_P1;HPM_P2
2023/12/16 00:02:16;;;;;;;7.65;1.40;;;;;;;;;;5068073;28;20123;-48
2023/12/16 00:04:43;;;;;;;5.97;1.58;;;;;;;;;;5073791;28;20502;-46
2023/12/16 00:07:10;;;;;;;3.22;1.40;;;;;;;;;;5074323;28;20024;-48
2023/12/16 00:09:37;;;;;;;5.70;1.60;;;;;;;;;;5072933;28;20608;-48
2023/12/16 00:12:05;;;;;;;8.50;1.42;;;;;;;;;;5074001;28;20025;-46
2023/12/16 00:14:36;;;;;;;6.10;1.30;;;;;;;;;;5071087;28;20032;-44
2023/12/16 00:17:03;;;;;;;6.82;1.40;;;;;;;;;;5083827;28;20032;-40
2023/12/16 00:19:31;;;;;;;6.28;1.50;;;;;;;;;;5072610;28;20040;-41
2023/12/16 00:21:58;;;;;;;6.43;1.60;;;;;;;;;;5073390;28;20032;-46
2023/12/16 00:24:25;;;;;;;14.40;1.73;;;;;;;;;;5055723;28;20064;-44
2023/12/16 00:26:53;;;;;;;3.63;1.30;;;;;;;;;;5077506;28;20062;-42
2023/12/16 00:29:20;;;;;;;4.15;1.70;;;;;;;;;;5060410;28;20146;-50
2023/12/16 00:31:47;;;;;;;13.27;2.05;;;;;;;;;;5073292;28;20036;-59
2023/12/16 00:34:14;;;;;;;12.60;2.00;;;;;;;;;;5070440;28;20127;-52
2023/12/16 00:36:42;;;;;;;14.27;2.40;;;;;;;;;;5079649;28;20119;-48
2023/12/16 00:39:09;;;;;;;12.77;2.22;;;;;;;;;;5079258;28;20035;-43
2023/12/16 00:41:37;;;;;;;16.63;2.25;;;;;;;;;;5074023;28;20021;-45
2023/12/16 00:44:04;;;;;;;12.50;1.90;;;;;;;;;;5067558;28;20029;-43
2023/12/16 00:46:35;;;;;;;10.30;1.77;;;;;;;;;;5071485;28;20039;-49
2023/12/16 00:49:02;;;;;;;12.98;1.50;;;;;;;;;;5063360;28;20402;-48
2023/12/16 00:51:29;;;;;;;10.82;2.08;;;;;;;;;;5062033;28;20111;-44
2023/12/16 00:53:56;;;;;;;12.90;2.15;;;;;;;;;;5072147;28;20029;-44
2023/12/16 00:56:23;;;;;;;9.20;1.55;;;;;;;;;;5076812;28;20689;-52
2023/12/16 00:58:50;;;;;;;15.50;2.10;;;;;;;;;;5041901;28;20029;-47
2023/12/16 01:01:18;;;;;;;13.95;2.00;;;;;;;;;;5065979;28;20035;-42
2023/12/16 01:03:45;;;;;;;29.17;2.30;;;;;;;;;;5101433;22;20121;-42
2023/12/16 01:06:12;;;;;;;19.52;1.98;;;;;;;;;;5067641;28;20691;-38
2023/12/16 01:08:39;;;;;;;12.20;2.10;;;;;;;;;;5072411;28;20028;-41
2023/12/16 01:11:06;;;;;;;11.65;2.22;;;;;;;;;;5071608;28;20438;-42
2023/12/16 01:13:34;;;;;;;18.05;2.00;;;;;;;;;;5070334;28;20042;-44
2023/12/16 01:16:01;;;;;;;14.35;1.88;;;;;;;;;;5070220;28;20493;-44
2023/12/16 01:18:28;;;;;;;7.40;1.50;;;;;;;;;;5071887;28;20051;-44
2023/12/16 01:20:55;;;;;;;6.63;1.50;;;;;;;;;;5072111;28;20021;-42
2023/12/16 01:23:22;;;;;;;10.63;1.60;;;;;;;;;;5069004;28;20040;-43
2023/12/16 01:25:49;;;;;;;13.05;2.15;;;;;;;;;;5072164;28;20025;-43
2023/12/16 01:28:15;;;;;;;3.92;1.40;;;;;;;;;;5069555;28;20028;-42
2023/12/16 01:30:42;;;;;;;8.50;1.65;;;;;;;;;;5071286;28;20043;-42
2023/12/16 01:33:10;;;;;;;3.78;1.45;;;;;;;;;;5067047;28;20060;-43
2023/12/16 01:35:37;;;;;;;7.13;1.92;;;;;;;;;;5056947;28;20032;-42
2023/12/16 01:38:03;;;;;;;7.50;1.40;;;;;;;;;;5053176;28;20033;-42
2023/12/16 01:40:33;;;;;;;6.65;1.67;;;;;;;;;;5058041;28;20111;-43
2023/12/16 01:43:04;;;;;;;4.25;1.50;;;;;;;;;;5044059;28;20029;-41
2023/12/16 01:45:31;;;;;;;4.63;1.40;;;;;;;;;;5055309;28;20052;-48
2023/12/16 01:47:59;;;;;;;5.38;1.40;;;;;;;;;;5056371;28;20029;-43
2023/12/16 01:50:27;;;;;;;6.93;1.73;;;;;;;;;;5062048;28;20044;-42
2023/12/16 01:52:54;;;;;;;4.15;1.20;;;;;;;;;;5052303;28;20545;-42
2023/12/16 01:55:21;;;;;;;3.28;1.45;;;;;;;;;;5062207;28;20075;-41
2023/12/16 01:57:48;;;;;;;2.50;1.23;;;;;;;;;;5053120;28;20035;-44
2023/12/16 02:00:16;;;;;;;7.13;1.67;;;;;;;;;;5067934;28;20103;-40
2023/12/16 02:02:43;;;;;;;4.68;1.65;;;;;;;;;;5059340;28;20048;-42
2023/12/16 02:05:10;;;;;;;2.53;1.63;;;;;;;;;;5065067;28;20084;-44
2023/12/16 02:07:37;;;;;;;4.13;1.63;;;;;;;;;;5066188;28;20074;-45
2023/12/16 02:10:04;;;;;;;5.63;1.80;;;;;;;;;;5061444;28;20541;-43
2023/12/16 02:12:34;;;;;;;8.50;2.10;;;;;;;;;;5060024;28;20097;-44
2023/12/16 02:15:01;;;;;;;4.60;2.20;;;;;;;;;;5075309;28;20031;-38
2023/12/16 02:17:28;;;;;;;3.67;1.80;;;;;;;;;;5068084;28;20040;-38
2023/12/16 02:19:55;;;;;;;4.90;1.90;;;;;;;;;;5055384;28;20028;-42
2023/12/16 02:22:23;;;;;;;6.82;2.70;;;;;;;;;;5066119;28;20025;-39
2023/12/16 02:24:50;;;;;;;4.03;1.90;;;;;;;;;;5068714;28;20113;-41
2023/12/16 02:27:23;;;;;;;4.55;2.60;;;;;;;;;;5068123;28;20024;-44
2023/12/16 02:29:51;;;;;;;9.95;2.58;;;;;;;;;;5068544;28;20028;-44
2023/12/16 02:32:19;;;;;;;5.07;2.50;;;;;;;;;;5065134;28;20034;-40
2023/12/16 02:34:45;;;;;;;3.65;2.30;;;;;;;;;;5069822;28;20059;-41
2023/12/16 02:37:13;;;;;;;6.45;2.53;;;;;;;;;;5067965;28;20036;-43
2023/12/16 02:39:39;;;;;;;7.30;2.92;;;;;;;;;;5068669;28;20028;-40
2023/12/16 02:42:07;;;;;;;4.43;2.80;;;;;;;;;;5043511;28;20119;-43
2023/12/16 02:44:34;;;;;;;7.13;2.88;;;;;;;;;;5066542;28;20040;-41
2023/12/16 02:47:01;;;;;;;9.00;3.20;;;;;;;;;;5068265;28;20036;-43
2023/12/16 02:49:30;;;;;;;8.65;3.83;;;;;;;;;;5067819;28;20033;-41
2023/12/16 02:52:03;;;;;;;5.68;3.40;;;;;;;;;;5064645;28;20780;-42
2023/12/16 02:54:30;;;;;;;10.63;4.00;;;;;;;;;;5051918;28;20033;-40
2023/12/16 02:56:57;;;;;;;8.95;4.32;;;;;;;;;;5067883;28;20028;-41
2023/12/16 02:59:24;;;;;;;8.70;3.92;;;;;;;;;;5069400;28;20035;-40
2023/12/16 03:01:51;;;;;;;8.63;3.47;;;;;;;;;;5069789;28;20028;-40
2023/12/16 03:04:18;;;;;;;4.95;3.28;;;;;;;;;;5041811;28;20435;-40
2023/12/16 03:06:46;;;;;;;9.00;3.58;;;;;;;;;;5068093;28;20028;-39
2023/12/16 03:09:13;;;;;;;4.38;3.30;;;;;;;;;;5068380;28;20044;-41
2023/12/16 03:11:40;;;;;;;6.55;2.88;;;;;;;;;;5066829;28;20143;-40
2023/12/16 03:14:07;;;;;;;3.65;3.13;;;;;;;;;;5067138;28;20114;-40
2023/12/16 03:16:35;;;;;;;4.85;3.20;;;;;;;;;;5070093;28;20028;-41
2023/12/16 03:19:02;;;;;;;9.43;3.13;;;;;;;;;;5069092;28;20412;-40
2023/12/16 03:21:29;;;;;;;12.52;3.03;;;;;;;;;;5073153;28;20394;-40
2023/12/16 03:23:56;;;;;;;9.85;3.22;;;;;;;;;;5064696;28;20041;-40
2023/12/16 03:26:23;;;;;;;11.63;3.10;;;;;;;;;;5070171;28;20025;-40
2023/12/16 03:28:50;;;;;;;22.77;3.20;;;;;;;;;;5067006;28;20107;-42
2023/12/16 03:31:17;;;;;;;8.43;2.85;;;;;;;;;;5066486;28;20024;-48
2023/12/16 03:33:44;;;;;;;10.30;2.67;;;;;;;;;;5067247;28;20056;-40
2023/12/16 03:36:11;;;;;;;7.68;2.65;;;;;;;;;;5065790;28;20090;-44
2023/12/16 03:38:38;;;;;;;6.40;2.47;;;;;;;;;;5061301;28;20077;-46
2023/12/16 03:41:05;;;;;;;12.38;3.03;;;;;;;;;;5064056;28;20020;-38
2023/12/16 03:43:32;;;;;;;8.48;2.60;;;;;;;;;;5064184;28;20544;-46
2023/12/16 03:45:59;;;;;;;3.97;2.40;;;;;;;;;;5067233;28;20126;-44
2023/12/16 03:48:26;;;;;;;17.23;2.72;;;;;;;;;;5058405;28;20094;-45
2023/12/16 03:50:53;;;;;;;9.35;2.17;;;;;;;;;;5063590;28;20032;-42
2023/12/16 03:53:20;;;;;;;6.00;2.17;;;;;;;;;;5062237;28;20021;-46
2023/12/16 03:55:47;;;;;;;16.70;3.17;;;;;;;;;;5059513;28;20021;-44
2023/12/16 03:58:14;;;;;;;18.45;2.83;;;;;;;;;;5062938;28;20430;-39
2023/12/16 04:00:41;;;;;;;3.47;2.30;;;;;;;;;;5067163;28;20110;-51
2023/12/16 04:03:08;;;;;;;2.53;1.80;;;;;;;;;;5065373;28;20033;-51
2023/12/16 04:05:35;;;;;;;5.35;1.98;;;;;;;;;;5062428;28;20036;-43
2023/12/16 04:08:03;;;;;;;3.80;2.05;;;;;;;;;;5067438;28;20032;-38
2023/12/16 04:10:30;;;;;;;2.13;1.80;;;;;;;;;;5065245;28;20040;-44
2023/12/16 04:12:57;;;;;;;3.92;1.95;;;;;;;;;;5068511;28;20558;-47
2023/12/16 04:15:24;;;;;;;7.07;2.10;;;;;;;;;;5068583;28;20094;-41
2023/12/16 04:17:51;;;;;;;5.28;2.08;;;;;;;;;;5047859;28;20029;-42
2023/12/16 04:20:18;;;;;;;6.28;2.17;;;;;;;;;;5069666;28;20441;-39
2023/12/16 04:22:45;;;;;;;5.43;2.05;;;;;;;;;;5062571;28;20025;-41
2023/12/16 04:25:12;;;;;;;10.10;2.20;;;;;;;;;;5059849;28;20600;-47
2023/12/16 04:27:39;;;;;;;9.07;2.35;;;;;;;;;;5043543;28;20416;-40
2023/12/16 04:30:07;;;;;;;7.90;2.15;;;;;;;;;;5074142;28;20036;-44
2023/12/16 04:32:34;;;;;;;11.57;1.90;;;;;;;;;;5065051;28;20037;-50
2023/12/16 04:35:01;;;;;;;9.88;2.33;;;;;;;;;;5059885;28;20028;-45
2023/12/16 04:37:28;;;;;;;5.03;2.30;;;;;;;;;;5054129;28;20039;-46
2023/12/16 04:39:55;;;;;;;11.15;2.20;;;;;;;;;;5073542;28;20131;-40
2023/12/16 04:42:22;;;;;;;8.25;1.90;;;;;;;;;;5071856;28;20029;-46
2023/12/16 04:44:49;;;;;;;14.05;2.30;;;;;;;;;;5070476;28;20039;-48
2023/12/16 04:47:16;;;;;;;13.82;2.42;;;;;;;;;;5068813;28;20031;-50
2023/12/16 04:49:43;;;;;;;15.73;2.50;;;;;;;;;;5065220;28;20501;-43
2023/12/16 04:52:10;;;;;;;34.33;3.67;;;;;;;;;;5061683;28;20040;-39
2023/12/16 04:54:37;;;;;;;31.55;3.95;;;;;;;;;;5060711;28;20120;-41
2023/12/16 04:57:04;;;;;;;20.33;3.35;;;;;;;;;;5059817;28;20044;-42
2023/12/16 04:59:31;;;;;;;21.00;2.80;;;;;;;;;;5055149;28;20123;-44
2023/12/16 05:01:58;;;;;;;20.75;3.28;;;;;;;;;;5061029;28;20028;-43
2023/12/16 05:04:25;;;;;;;23.05;2.72;;;;;;;;;;5067018;28;20135;-49
2023/12/16 05:06:52;;;;;;;27.92;3.17;;;;;;;;;;5063322;28;20033;-51
2023/12/16 05:09:19;;;;;;;22.30;3.30;;;;;;;;;;5064820;28;20033;-52
2023/12/16 05:11:46;;;;;;;25.27;3.15;;;;;;;;;;5065188;28;20082;-43
2023/12/16 05:14:13;;;;;;;28.23;3.45;;;;;;;;;;5043448;28;20055;-47
2023/12/16 05:16:40;;;;;;;21.88;3.10;;;;;;;;;;5066187;28;20016;-44
2023/12/16 05:19:07;;;;;;;21.00;2.85;;;;;;;;;;5063207;28;20540;-38
2023/12/16 05:21:34;;;;;;;25.35;3.50;;;;;;;;;;5063431;28;20032;-44
2023/12/16 05:24:01;;;;;;;35.67;3.90;;;;;;;;;;5063193;28;20052;-39
2023/12/16 05:26:28;;;;;;;34.42;3.80;;;;;;;;;;5062340;28;20111;-41
2023/12/16 05:28:55;;;;;;;50.65;5.00;;;;;;;;;;5059759;28;20043;-40
2023/12/16 05:31:22;;;;;;;41.15;4.60;;;;;;;;;;5060682;28;20108;-43
2023/12/16 05:33:49;;;;;;;31.55;4.28;;;;;;;;;;5073123;28;20056;-41
2023/12/16 05:36:16;;;;;;;38.30;4.53;;;;;;;;;;5073172;28;20044;-43
2023/12/16 05:38:43;;;;;;;31.13;3.80;;;;;;;;;;5073112;28;20036;-38
2023/12/16 05:41:13;;;;;;;31.58;4.43;;;;;;;;;;5073031;28;20056;-42
2023/12/16 05:43:40;;;;;;;28.77;3.67;;;;;;;;;;5045885;28;20048;-38
2023/12/16 05:46:08;;;;;;;23.15;3.63;;;;;;;;;;5072852;28;20457;-38
2023/12/16 05:48:38;;;;;;;19.17;3.45;;;;;;;;;;5072155;28;20029;-40
2023/12/16 05:51:05;;;;;;;26.08;3.60;;;;;;;;;;5072719;28;20029;-41
2023/12/16 05:53:35;;;;;;;15.98;2.63;;;;;;;;;;5067722;28;20029;-41
2023/12/16 05:56:06;;;;;;;31.58;3.20;;;;;;;;;;5065688;28;20020;-40
2023/12/16 05:58:33;;;;;;;20.40;2.53;;;;;;;;;;5071795;28;20175;-41
2023/12/16 06:01:00;;;;;;;20.00;2.88;;;;;;;;;;5067358;28;20828;-44
2023/12/16 06:03:27;;;;;;;18.75;2.40;;;;;;;;;;5071006;28;20048;-45
2023/12/16 06:05:54;;;;;;;27.40;2.60;;;;;;;;;;5048073;28;20119;-41
2023/12/16 06:08:21;;;;;;;17.67;2.42;;;;;;;;;;5070118;28;20086;-40
2023/12/16 06:10:48;;;;;;;19.55;2.55;;;;;;;;;;5035458;28;20442;-40
2023/12/16 06:13:15;;;;;;;16.67;2.80;;;;;;;;;;5052444;28;20078;-42
2023/12/16 06:15:43;;;;;;;27.00;2.97;;;;;;;;;;5067918;28;20032;-38
2023/12/16 06:18:10;;;;;;;19.40;2.00;;;;;;;;;;5068670;28;20041;-41
2023/12/16 06:20:37;;;;;;;8.60;2.30;;;;;;;;;;5054604;28;20031;-44
2023/12/16 06:23:03;;;;;;;8.48;2.03;;;;;;;;;;5067503;28;20076;-38
2023/12/16 06:25:30;;;;;;;19.48;2.38;;;;;;;;;;5072191;28;20082;-38
2023/12/16 06:27:57;;;;;;;14.27;2.30;;;;;;;;;;5054205;28;20035;-37
2023/12/16 06:30:24;;;;;;;14.43;2.13;;;;;;;;;;5070746;28;20074;-39
2023/12/16 06:32:51;;;;;;;9.40;1.90;;;;;;;;;;5063113;28;20033;-40
2023/12/16 06:35:18;;;;;;;11.57;2.17;;;;;;;;;;5054627;28;20514;-44
2023/12/16 06:37:45;;;;;;;10.88;1.95;;;;;;;;;;5059016;28;20029;-42
2023/12/16 06:40:12;;;;;;;10.52;1.65;;;;;;;;;;5057001;28;20037;-41
2023/12/16 06:42:39;;;;;;;8.30;1.60;;;;;;;;;;5057972;28;20044;-50
2023/12/16 06:45:06;;;;;;;6.63;1.30;;;;;;;;;;5063041;28;20040;-40
2023/12/16 06:47:33;;;;;;;11.38;1.95;;;;;;;;;;5058470;28;20033;-39
2023/12/16 06:50:00;;;;;;;7.60;1.80;;;;;;;;;;5055344;28;20033;-42
2023/12/16 06:52:27;;;;;;;11.00;2.00;;;;;;;;;;5061181;28;20037;-39
2023/12/16 06:54:54;;;;;;;4.95;1.58;;;;;;;;;;5064427;28;20032;-41
2023/12/16 06:57:21;;;;;;;5.70;1.55;;;;;;;;;;5071743;28;20032;-39
2023/12/16 06:59:48;;;;;;;11.77;1.75;;;;;;;;;;5053855;28;20040;-41
2023/12/16 07:02:15;;;;;;;6.00;1.67;;;;;;;;;;5057711;28;20040;-41
2023/12/16 07:04:42;;;;;;;6.78;1.33;;;;;;;;;;5070875;28;20036;-41
2023/12/16 07:07:09;;;;;;;6.75;1.05;;;;;;;;;;5071670;28;20386;-39
2023/12/16 07:09:36;;;;;;;7.80;1.73;;;;;;;;;;5055737;28;20028;-40
2023/12/16 07:12:03;;;;;;;4.43;1.23;;;;;;;;;;5063900;28;20116;-42
2023/12/16 07:14:30;;;;;;;5.03;1.50;;;;;;;;;;5056284;28;20029;-38
2023/12/16 07:16:57;;;;;;;4.93;1.25;;;;;;;;;;5071288;28;20029;-42
2023/12/16 07:19:24;;;;;;;9.27;1.70;;;;;;;;;;5066745;28;20033;-43
2023/12/16 07:21:51;;;;;;;4.78;1.67;;;;;;;;;;5053282;28;20021;-40
2023/12/16 07:24:18;;;;;;;8.57;1.70;;;;;;;;;;5051253;28;20037;-42
2023/12/16 07:26:45;;;;;;;4.95;1.50;;;;;;;;;;5051319;28;20540;-41
2023/12/16 07:29:12;;;;;;;8.70;1.33;;;;;;;;;;5066102;28;20430;-41
2023/12/16 07:31:41;;;;;;;7.10;1.23;;;;;;;;;;5069298;28;20028;-41
2023/12/16 07:34:10;;;;;;;7.28;1.42;;;;;;;;;;5055874;28;20478;-41
2023/12/16 07:36:37;;;;;;;7.90;1.52;;;;;;;;;;5052309;28;20021;-39
2023/12/16 07:39:04;;;;;;;4.53;1.35;;;;;;;;;;5058230;28;20033;-38
2023/12/16 07:41:32;;;;;;;3.20;1.33;;;;;;;;;;5067792;28;20029;-39
2023/12/16 07:43:58;;;;;;;5.55;1.42;;;;;;;;;;5065944;28;20051;-39
2023/12/16 07:46:26;;;;;;;2.13;0.93;;;;;;;;;;5070915;28;20024;-39
2023/12/16 07:48:53;;;;;;;3.03;1.35;;;;;;;;;;5070176;28;20055;-40
2023/12/16 07:51:22;;;;;;;2.60;1.10;;;;;;;;;;5048966;28;20029;-40
2023/12/16 07:53:49;;;;;;;4.57;1.30;;;;;;;;;;5070926;28;20036;-41
2023/12/16 07:56:28;;;;;;;3.72;1.33;;;;;;;;;;5074733;28;20032;-43
2023/12/16 07:58:58;;;;;;;2.50;1.13;;;;;;;;;;5061958;28;20036;-39
2023/12/16 08:01:25;;;;;;;4.28;1.20;;;;;;;;;;5070223;28;20584;-40
2023/12/16 08:03:52;;;;;;;7.13;1.65;;;;;;;;;;5074761;28;20399;-38
2023/12/16 08:06:20;;;;;;;6.00;1.10;;;;;;;;;;5072685;28;20478;-40
2023/12/16 08:08:47;;;;;;;8.70;1.50;;;;;;;;;;5062260;28;20063;-40
2023/12/16 08:11:14;;;;;;;7.75;1.30;;;;;;;;;;5074318;28;20028;-38
2023/12/16 08:13:41;;;;;;;7.00;1.17;;;;;;;;;;5071751;28;20040;-39
2023/12/16 08:16:10;;;;;;;15.88;1.60;;;;;;;;;;5061022;28;20025;-38
2023/12/16 08:18:37;;;;;;;5.95;1.50;;;;;;;;;;5057674;28;20478;-38
2023/12/16 08:21:04;;;;;;;10.23;1.58;;;;;;;;;;5054575;28;20041;-39
2023/12/16 08:23:31;;;;;;;10.63;1.42;;;;;;;;;;5054656;28;20033;-40
2023/12/16 08:25:58;;;;;;;13.05;1.50;;;;;;;;;;5066677;28;20046;-37
2023/12/16 08:28:25;;;;;;;9.43;1.45;;;;;;;;;;5062933;28;20024;-38
2023/12/16 08:30:53;;;;;;;16.33;2.13;;;;;;;;;;5070061;28;20381;-37
2023/12/16 08:33:20;;;;;;;22.38;1.98;;;;;;;;;;5069267;28;20059;-41
2023/12/16 08:35:47;;;;;;;22.20;2.28;;;;;;;;;;5071894;28;20090;-39
2023/12/16 08:38:14;;;;;;;22.48;2.50;;;;;;;;;;5046578;28;20041;-38
2023/12/16 08:40:41;;;;;;;17.58;2.20;;;;;;;;;;5068177;28;20024;-40
2023/12/16 08:43:09;;;;;;;22.90;2.60;;;;;;;;;;5072824;28;20035;-39
2023/12/16 08:45:35;;;;;;;28.42;2.30;;;;;;;;;;5064485;28;20110;-39
2023/12/16 08:48:03;;;;;;;20.15;2.30;;;;;;;;;;5070580;28;20025;-40
2023/12/16 08:50:30;;;;;;;22.27;2.20;;;;;;;;;;5060331;28;20033;-44
2023/12/16 08:52:57;;;;;;;16.83;2.33;;;;;;;;;;5073530;28;20033;-39
2023/12/16 08:55:26;;;;;;;19.25;2.45;;;;;;;;;;5066887;28;20359;-41
2023/12/16 08:57:53;;;;;;;10.55;2.08;;;;;;;;;;5073383;28;20111;-41
2023/12/16 09:00:20;;;;;;;18.50;1.80;;;;;;;;;;5071535;28;20059;-40
2023/12/16 09:02:47;;;;;;;18.42;3.03;;;;;;;;;;5064111;28;20052;-41
2023/12/16 09:05:16;;;;;;;23.73;2.40;;;;;;;;;;5049767;28;20393;-41
2023/12/16 09:07:42;;;;;;;23.58;2.45;;;;;;;;;;5064039;28;20120;-42
2023/12/16 09:10:09;;;;;;;19.75;2.30;;;;;;;;;;5059929;28;20360;-39
2023/12/16 09:12:36;;;;;;;13.90;2.15;;;;;;;;;;5071702;28;20549;-39
2023/12/16 09:15:04;;;;;;;19.60;2.38;;;;;;;;;;5065515;28;20029;-41
2023/12/16 09:17:30;;;;;;;24.13;2.33;;;;;;;;;;5060510;28;20043;-40
2023/12/16 09:19:58;;;;;;;15.27;2.10;;;;;;;;;;5070181;28;20020;-40
2023/12/16 09:22:25;;;;;;;15.43;2.35;;;;;;;;;;5069850;28;20393;-41
2023/12/16 09:24:52;;;;;;;16.25;2.00;;;;;;;;;;5050514;28;20044;-41
2023/12/16 09:27:19;;;;;;;18.92;2.15;;;;;;;;;;5056314;28;20159;-41
2023/12/16 09:29:46;;;;;;;18.10;2.13;;;;;;;;;;5055331;28;20908;-40
2023/12/16 09:32:13;;;;;;;10.68;1.80;;;;;;;;;;5070015;28;20024;-40
2023/12/16 09:34:42;;;;;;;16.55;1.80;;;;;;;;;;5066045;28;20025;-42
2023/12/16 09:37:09;;;;;;;11.35;1.70;;;;;;;;;;5066102;28;20063;-41
2023/12/16 09:39:36;;;;;;;16.65;1.90;;;;;;;;;;5072902;28;20478;-41
2023/12/16 09:42:06;;;;;;;13.35;1.63;;;;;;;;;;5054704;28;20040;-41
2023/12/16 09:44:36;;;;;;;10.52;1.63;;;;;;;;;;5061272;28;20036;-41
2023/12/16 09:47:04;;;;;;;10.75;1.95;;;;;;;;;;5072563;28;20024;-42
2023/12/16 09:49:31;;;;;;;7.18;1.52;;;;;;;;;;5072934;28;20111;-41
2023/12/16 09:51:59;;;;;;;14.30;1.90;;;;;;;;;;5072046;28;20032;-41
2023/12/16 09:54:26;;;;;;;7.68;1.73;;;;;;;;;;5069671;28;20440;-41
2023/12/16 09:56:53;;;;;;;7.10;1.80;;;;;;;;;;5072481;28;20028;-41
2023/12/16 09:59:21;;;;;;;3.92;1.50;;;;;;;;;;5069242;28;20475;-43
2023/12/16 10:01:53;;;;;;;7.13;1.38;;;;;;;;;;5070666;28;20024;-42
2023/12/16 10:04:24;;;;;;;10.40;1.80;;;;;;;;;;5053083;28;20103;-40
2023/12/16 10:06:51;;;;;;;13.38;1.88;;;;;;;;;;5072330;28;20035;-39
2023/12/16 10:09:18;;;;;;;12.60;1.90;;;;;;;;;;5072328;28;20044;-40
2023/12/16 10:11:51;;;;;;;18.05;1.88;;;;;;;;;;5071925;28;20032;-41
2023/12/16 10:14:18;;;;;;;15.23;1.67;;;;;;;;;;5067320;28;20082;-41
2023/12/16 10:16:48;;;;;;;14.73;1.60;;;;;;;;;;5072243;28;20047;-41
2023/12/16 10:19:18;;;;;;;6.22;1.60;;;;;;;;;;5071964;28;20039;-40
2023/12/16 10:21:45;;;;;;;6.80;1.60;;;;;;;;;;5072148;28;20523;-41
2023/12/16 10:24:14;;;;;;;9.60;1.50;;;;;;;;;;5069644;28;20359;-40
2023/12/16 10:26:42;;;;;;;6.82;1.70;;;;;;;;;;5072092;28;20399;-39
2023/12/16 10:29:11;;;;;;;5.50;1.70;;;;;;;;;;5071898;28;20027;-39
2023/12/16 10:31:39;;;;;;;5.72;1.65;;;;;;;;;;5069703;28;20082;-41
2023/12/16 10:34:06;;;;;;;8.57;1.60;;;;;;;;;;5062644;28;20373;-41
2023/12/16 10:36:33;;;;;;;8.82;1.42;;;;;;;;;;5062377;28;20028;-40
2023/12/16 10:39:00;;;;;;;6.88;1.60;;;;;;;;;;5062326;28;20028;-39
2023/12/16 10:41:27;;;;;;;4.90;1.55;;;;;;;;;;5065069;28;20028;-40
2023/12/16 10:43:54;;;;;;;4.53;1.52;;;;;;;;;;5069183;28;20032;-41
2023/12/16 10:46:22;;;;;;;2.92;1.40;;;;;;;;;;5070561;28;20024;-40
2023/12/16 10:48:51;;;;;;;4.55;1.33;;;;;;;;;;5061884;28;20435;-41
2023/12/16 10:51:19;;;;;;;3.55;1.67;;;;;;;;;;5071345;28;20089;-39
2023/12/16 10:53:50;;;;;;;8.75;1.50;;;;;;;;;;5063697;28;20037;-41
2023/12/16 10:56:18;;;;;;;2.75;1.45;;;;;;;;;;5061447;28;20027;-41
2023/12/16 10:59:05;;;;;;;2.30;1.60;;;;;;;;;;5065119;28;20028;-40
2023/12/16 11:01:38;;;;;;;4.30;1.65;;;;;;;;;;5055310;28;20036;-41
2023/12/16 11:04:15;;;;;;;3.83;1.70;;;;;;;;;;5068438;28;20122;-39
2023/12/16 11:06:42;;;;;;;4.30;1.60;;;;;;;;;;5065938;28;20037;-41
2023/12/16 11:09:09;;;;;;;4.10;1.13;;;;;;;;;;5066080;28;20493;-40
2023/12/16 11:11:37;;;;;;;3.47;1.20;;;;;;;;;;5058129;28;20037;-40
2023/12/16 11:14:04;;;;;;;3.63;1.50;;;;;;;;;;5045048;28;20835;-40
2023/12/16 11:16:34;;;;;;;1.90;1.35;;;;;;;;;;5071177;28;20036;-41
2023/12/16 11:19:02;;;;;;;3.35;1.50;;;;;;;;;;5069472;28;20032;-42
2023/12/16 11:21:29;;;;;;;3.75;1.23;;;;;;;;;;5070662;28;20028;-44
2023/12/16 11:23:57;;;;;;;3.67;1.40;;;;;;;;;;5062369;28;20116;-41
2023/12/16 11:26:27;;;;;;;3.85;1.38;;;;;;;;;;5070339;28;20136;-39
2023/12/16 11:28:54;;;;;;;4.38;1.60;;;;;;;;;;5057360;28;20037;-40
2023/12/16 11:31:21;;;;;;;3.58;1.20;;;;;;;;;;5068912;28;20556;-41
2023/12/16 11:33:48;;;;;;;2.80;1.30;;;;;;;;;;5058673;28;20355;-44
2023/12/16 11:36:15;;;;;;;2.08;1.27;;;;;;;;;;5069273;28;20054;-40
2023/12/16 11:38:46;;;;;;;4.55;1.52;;;;;;;;;;5060315;28;20528;-41
2023/12/16 11:41:31;;;;;;;1.90;1.42;;;;;;;;;;5059988;28;20429;-40
2023/12/16 11:43:58;;;;;;;3.50;1.30;;;;;;;;;;5051552;28;20036;-41
2023/12/16 11:46:37;;;;;;;3.08;1.25;;;;;;;;;;5064987;28;20036;-41
2023/12/16 11:49:05;;;;;;;2.67;1.33;;;;;;;;;;5065576;28;20041;-40
2023/12/16 11:51:41;;;;;;;1.65;1.20;;;;;;;;;;5060231;28;20036;-41
2023/12/16 11:54:09;;;;;;;3.60;1.20;;;;;;;;;;5052504;28;20025;-41
2023/12/16 11:56:36;;;;;;;2.35;1.20;;;;;;;;;;5065524;28;20079;-40
2023/12/16 11:59:04;;;;;;;1.92;0.98;;;;;;;;;;5067774;28;20025;-44
2023/12/16 12:01:32;;;;;;;1.63;1.00;;;;;;;;;;5065359;28;20056;-40
2023/12/16 12:03:59;;;;;;;2.00;1.40;;;;;;;;;;5070678;28;20076;-41
2023/12/16 12:06:26;;;;;;;1.63;1.02;;;;;;;;;;5057608;28;20032;-41
2023/12/16 12:08:53;;;;;;;1.35;1.00;;;;;;;;;;5054048;28;20025;-39
2023/12/16 12:11:20;;;;;;;2.85;1.20;;;;;;;;;;5070159;28;20105;-41
2023/12/16 12:13:50;;;;;;;2.47;1.08;;;;;;;;;;5056867;28;20044;-42
2023/12/16 12:16:17;;;;;;;1.15;0.95;;;;;;;;;;5067044;28;20029;-42
2023/12/16 12:18:44;;;;;;;1.00;0.90;;;;;;;;;;5065734;28;20036;-42
2023/12/16 12:21:11;;;;;;;2.92;0.93;;;;;;;;;;5067221;28;20032;-41
2023/12/16 12:23:40;;;;;;;2.75;0.93;;;;;;;;;;5063439;28;20060;-41
2023/12/16 12:26:07;;;;;;;3.72;0.90;;;;;;;;;;5058788;28;20098;-41
2023/12/16 12:28:34;;;;;;;1.73;1.10;;;;;;;;;;5059742;28;20057;-42
2023/12/16 12:31:02;;;;;;;2.45;0.95;;;;;;;;;;5056913;28;20033;-40
2023/12/16 12:33:30;;;;;;;1.58;0.90;;;;;;;;;;5053495;28;20028;-40
2023/12/16 12:35:57;;;;;;;1.70;0.90;;;;;;;;;;5065130;28;20040;-40
2023/12/16 12:38:24;;;;;;;1.10;0.73;;;;;;;;;;5059530;28;20064;-40
2023/12/16 12:40:59;;;;;;;3.00;0.90;;;;;;;;;;5068196;28;20024;-41
2023/12/16 12:43:31;;;;;;;4.40;0.73;;;;;;;;;;5069127;28;20032;-42
2023/12/16 12:46:08;;;;;;;4.72;0.90;;;;;;;;;;5064852;28;20072;-40
2023/12/16 12:48:36;;;;;;;3.10;1.02;;;;;;;;;;5073855;28;20118;-40
2023/12/16 12:51:07;;;;;;;5.03;0.95;;;;;;;;;;5069553;28;20040;-42
2023/12/16 12:53:35;;;;;;;4.23;0.87;;;;;;;;;;5069692;28;20454;-41
2023/12/16 12:56:02;;;;;;;4.63;0.95;;;;;;;;;;5067196;28;20064;-40
2023/12/16 12:58:30;;;;;;;1.80;0.60;;;;;;;;;;5064360;28;20043;-42
2023/12/16 13:01:02;;;;;;;1.33;0.70;;;;;;;;;;5068295;28;20083;-40
2023/12/16 13:03:30;;;;;;;1.17;0.70;;;;;;;;;;5066139;28;20052;-41
2023/12/16 13:05:57;;;;;;;1.33;0.60;;;;;;;;;;5046183;28;20044;-41
2023/12/16 13:08:24;;;;;;;3.13;0.93;;;;;;;;;;5059983;28;20123;-40
2023/12/16 13:10:51;;;;;;;1.33;0.82;;;;;;;;;;5067300;28;20100;-40
2023/12/16 13:13:19;;;;;;;1.52;0.57;;;;;;;;;;5068687;28;20025;-41
2023/12/16 13:15:47;;;;;;;3.63;1.00;;;;;;;;;;5055936;28;20033;-42
2023/12/16 13:18:14;;;;;;;1.00;0.80;;;;;;;;;;5059905;28;20033;-40
2023/12/16 13:20:43;;;;;;;2.25;0.68;;;;;;;;;;5067556;28;20044;-41
2023/12/16 13:23:14;;;;;;;1.75;0.60;;;;;;;;;;5063756;28;20067;-40
2023/12/16 13:25:41;;;;;;;4.88;0.90;;;;;;;;;;5062677;28;20039;-40
2023/12/16 13:28:08;;;;;;;1.88;0.73;;;;;;;;;;5072864;28;20036;-41
2023/12/16 13:30:35;;;;;;;1.77;0.85;;;;;;;;;;5055866;28;20039;-40
2023/12/16 13:33:05;;;;;;;1.13;0.80;;;;;;;;;;5062574;28;20033;-40
2023/12/16 13:35:33;;;;;;;2.08;0.80;;;;;;;;;;5065231;28;20032;-39
2023/12/16 13:38:00;;;;;;;1.40;0.70;;;;;;;;;;5072759;28;20029;-40
2023/12/16 13:40:27;;;;;;;2.28;0.50;;;;;;;;;;5058554;28;20029;-41
2023/12/16 13:42:54;;;;;;;3.92;0.90;;;;;;;;;;5063716;28;20028;-40
2023/12/16 13:45:21;;;;;;;1.92;0.93;;;;;;;;;;5065809;28;20029;-40
2023/12/16 13:47:48;;;;;;;3.03;0.82;;;;;;;;;;5065755;28;20024;-40
2023/12/16 13:50:15;;;;;;;2.33;0.90;;;;;;;;;;5060278;28;20035;-40
2023/12/16 13:52:42;;;;;;;3.35;0.82;;;;;;;;;;5059382;28;20028;-41
2023/12/16 13:55:09;;;;;;;2.55;0.90;;;;;;;;;;5065018;28;20032;-41
2023/12/16 13:57:36;;;;;;;6.82;1.17;;;;;;;;;;5069823;28;20025;-41
2023/12/16 14:00:03;;;;;;;2.22;0.93;;;;;;;;;;5072667;28;20492;-40
2023/12/16 14:02:30;;;;;;;5.90;1.08;;;;;;;;;;5061389;28;20128;-44
2023/12/16 14:04:59;;;;;;;6.57;1.25;;;;;;;;;;5071919;28;20123;-41
2023/12/16 14:07:26;;;;;;;6.18;1.33;;;;;;;;;;5071322;28;20021;-43
2023/12/16 14:09:53;;;;;;;3.95;1.23;;;;;;;;;;5070038;28;20029;-44
2023/12/16 14:12:20;;;;;;;7.93;1.50;;;;;;;;;;5070951;28;20099;-41
2023/12/16 14:14:47;;;;;;;4.63;1.30;;;;;;;;;;5068783;28;20029;-41
2023/12/16 14:17:14;;;;;;;7.28;1.45;;;;;;;;;;5061259;28;20032;-40
2023/12/16 14:19:42;;;;;;;6.65;1.30;;;;;;;;;;5071955;28;20107;-41
2023/12/16 14:22:09;;;;;;;3.78;1.20;;;;;;;;;;5062065;28;20036;-41
2023/12/16 14:24:36;;;;;;;7.10;1.50;;;;;;;;;;5072018;28;20123;-39
2023/12/16 14:27:03;;;;;;;3.70;1.48;;;;;;;;;;5063115;28;20124;-41
2023/12/16 14:29:30;;;;;;;4.10;1.50;;;;;;;;;;5064825;28;20115;-41
2023/12/16 14:31:57;;;;;;;6.60;1.63;;;;;;;;;;5070243;28;20436;-41
2023/12/16 14:34:25;;;;;;;5.90;1.65;;;;;;;;;;5061163;28;20027;-41
2023/12/16 14:36:51;;;;;;;1.80;1.23;;;;;;;;;;5070178;28;20078;-39
2023/12/16 14:39:18;;;;;;;7.90;1.90;;;;;;;;;;5057763;28;20033;-40
2023/12/16 14:41:45;;;;;;;7.40;1.70;;;;;;;;;;5066627;28;20056;-39